Time;durP1;ratioP1;P1;durP2;ratioP2;P2;SDS_P1;SDS_P2;PMS_P1;PMS_P2;Temp;Humidity;BMP_temperature;BMP_pressure;BME280_temperature;BME280_humidity;BME280_pressure;Samples;Min_cycle;Max_cycle;Signal;HPM_P1;HPM_P2
2022/02/24 00:02:59;;;;;;;38.78;21.35;;;;;;;2.39;83.68;100512.98;1686947;85;21904;-77
2022/02/24 00:06:05;;;;;;;40.23;20.08;;;;;;;2.34;83.62;100511.14;1687301;85;21935;-76
2022/02/24 00:09:11;;;;;;;38.60;20.92;;;;;;;2.30;83.74;100520.81;1688339;85;21726;-85
2022/02/24 00:12:17;;;;;;;33.30;19.27;;;;;;;2.27;83.96;100515.67;1687452;85;21882;-85
2022/02/24 00:15:22;;;;;;;37.70;22.02;;;;;;;2.24;84.10;100519.09;1687830;85;21196;-84
2022/02/24 00:18:28;;;;;;;32.28;19.90;;;;;;;2.20;84.28;100519.80;1687685;85;21310;-85
2022/02/24 00:21:36;;;;;;;38.02;21.45;;;;;;;2.17;84.49;100519.20;1687720;85;21230;-77
2022/02/24 00:24:41;;;;;;;30.97;20.85;;;;;;;2.14;84.71;100512.19;1688614;85;21310;-78
2022/02/24 00:27:49;;;;;;;32.23;20.10;;;;;;;2.10;84.67;100516.09;1688064;85;21727;-85
2022/02/24 00:30:54;;;;;;;36.58;21.27;;;;;;;2.02;84.83;100514.46;1688024;85;21314;-76
2022/02/24 00:34:00;;;;;;;37.88;21.77;;;;;;;1.97;84.91;100509.91;1688984;85;21171;-77
2022/02/24 00:37:08;;;;;;;38.95;24.00;;;;;;;1.90;85.21;100514.92;1687662;85;21274;-85
2022/02/24 00:40:15;;;;;;;35.23;21.95;;;;;;;1.84;85.60;100517.23;1688795;85;21180;-85
2022/02/24 00:43:21;;;;;;;40.33;23.92;;;;;;;1.81;85.83;100516.10;1689022;85;21832;-77
2022/02/24 00:46:27;;;;;;;32.63;22.37;;;;;;;1.75;86.08;100515.59;1687601;85;21184;-85
2022/02/24 00:49:31;;;;;;;42.10;22.27;;;;;;;1.71;86.42;100520.84;1687587;85;21293;-84
2022/02/24 00:52:30;;;;;;;36.53;24.35;;;;;;;1.69;86.78;100523.26;1687645;83;21849;-86
2022/02/24 00:55:35;;;;;;;37.65;23.38;;;;;;;1.68;86.97;100528.28;1687234;85;21189;-85
2022/02/24 00:58:41;;;;;;;36.00;23.42;;;;;;;1.64;87.25;100524.95;1687480;85;21292;-85
2022/02/24 01:01:48;;;;;;;38.33;23.50;;;;;;;1.64;87.40;100522.25;1686391;83;21224;-86
2022/02/24 01:04:53;;;;;;;38.15;22.70;;;;;;;1.60;87.81;100511.34;1687487;85;21316;-86
2022/02/24 01:07:58;;;;;;;37.73;22.48;;;;;;;1.60;88.27;100515.85;1687558;83;21331;-86
2022/02/24 01:11:04;;;;;;;41.13;25.20;;;;;;;1.62;88.59;100517.47;1687495;83;21826;-85
2022/02/24 01:14:09;;;;;;;43.02;25.82;;;;;;;1.62;88.71;100525.56;1687615;85;21304;-78
2022/02/24 01:17:16;;;;;;;44.60;25.48;;;;;;;1.63;88.89;100523.23;1687268;83;21192;-77
2022/02/24 01:20:21;;;;;;;47.50;24.87;;;;;;;1.64;89.02;100528.99;1687619;85;21220;-77
2022/02/24 01:23:27;;;;;;;41.18;23.30;;;;;;;1.64;89.09;100525.44;1687346;83;21328;-77
2022/02/24 01:26:33;;;;;;;39.03;24.70;;;;;;;1.66;89.09;100536.98;1686557;84;21320;-86
2022/02/24 01:29:38;;;;;;;41.98;25.23;;;;;;;1.66;89.00;100536.98;1687339;85;21316;-85
2022/02/24 01:32:43;;;;;;;47.20;25.05;;;;;;;1.63;88.99;100535.37;1686703;84;21335;-84
2022/02/24 01:35:48;;;;;;;36.98;23.73;;;;;;;1.62;88.99;100536.34;1687100;85;21360;-77
2022/02/24 01:38:55;;;;;;;42.70;24.45;;;;;;;1.63;89.00;100542.11;1687398;85;21893;-85
2022/02/24 01:42:01;;;;;;;44.10;24.57;;;;;;;1.65;88.84;100544.22;1687102;84;21215;-85
2022/02/24 01:45:06;;;;;;;40.78;24.43;;;;;;;1.69;88.87;100548.39;1686145;85;21344;-85
2022/02/24 01:48:12;;;;;;;41.55;23.90;;;;;;;1.75;88.68;100543.91;1688778;82;21390;-77
2022/02/24 01:51:17;;;;;;;33.33;22.30;;;;;;;1.81;88.61;100553.86;1718337;82;21310;-85
2022/02/24 01:54:22;;;;;;;37.00;23.35;;;;;;;1.87;88.50;100552.91;1718311;83;21148;-85
2022/02/24 01:57:33;;;;;;;39.80;23.60;;;;;;;1.91;88.23;100559.80;1717225;82;21860;-77
2022/02/24 02:00:35;;;;;;;41.28;23.75;;;;;;;1.92;87.78;100557.95;1718405;83;21168;-77
2022/02/24 02:03:42;;;;;;;36.80;22.85;;;;;;;1.91;87.61;100562.98;1718381;83;21165;-77
2022/02/24 02:06:47;;;;;;;39.08;23.07;;;;;;;1.92;87.41;100560.66;1717732;82;21180;-77
2022/02/24 02:09:54;;;;;;;37.20;23.20;;;;;;;1.89;86.90;100560.41;1718279;83;21792;-86
2022/02/24 02:12:59;;;;;;;47.35;23.67;;;;;;;1.82;86.61;100569.92;1707793;83;21220;-85
2022/02/24 02:16:07;;;;;;;39.53;22.93;;;;;;;1.75;86.38;100578.97;1718474;82;21813;-86
2022/02/24 02:19:14;;;;;;;37.70;23.05;;;;;;;1.70;86.48;100578.45;1718485;83;21283;-86
2022/02/24 02:22:19;;;;;;;34.55;22.77;;;;;;;1.71;86.62;100577.95;1717902;82;21853;-78
2022/02/24 02:25:24;;;;;;;33.18;21.57;;;;;;;1.68;86.45;100579.52;1718385;83;21283;-86
2022/02/24 02:28:30;;;;;;;38.25;21.73;;;;;;;1.64;86.33;100586.11;1718394;83;21287;-86
2022/02/24 02:31:36;;;;;;;33.23;20.37;;;;;;;1.57;86.12;100588.90;1716910;82;21232;-78
2022/02/24 02:34:41;;;;;;;30.85;18.70;;;;;;;1.51;86.43;100592.42;1716916;83;21871;-85
2022/02/24 02:37:48;;;;;;;32.08;19.52;;;;;;;1.45;86.70;100597.38;1717389;82;21341;-76
2022/02/24 02:40:54;;;;;;;28.85;20.15;;;;;;;1.42;86.98;100594.92;1718397;83;21804;-85
2022/02/24 02:44:00;;;;;;;33.48;20.37;;;;;;;1.44;87.17;100597.86;1718269;83;21855;-76
2022/02/24 02:47:06;;;;;;;32.00;19.62;;;;;;;1.45;87.31;100596.88;1718168;82;21188;-77
2022/02/24 02:50:12;;;;;;;28.70;18.15;;;;;;;1.46;86.96;100599.13;1719020;83;21837;-85
2022/02/24 02:53:18;;;;;;;29.15;18.82;;;;;;;1.40;86.67;100597.70;1719774;82;21180;-77
2022/02/24 02:56:22;;;;;;;27.80;19.30;;;;;;;1.33;86.85;100600.97;1719790;82;21140;-85
2022/02/24 02:59:27;;;;;;;31.55;18.35;;;;;;;1.25;87.30;100605.06;1719835;83;21809;-85
2022/02/24 03:02:32;;;;;;;32.50;19.12;;;;;;;1.20;87.87;100603.19;1719622;82;21319;-77
2022/02/24 03:05:38;;;;;;;26.27;17.07;;;;;;;1.18;88.13;100605.14;1719751;83;21274;-85
2022/02/24 03:08:44;;;;;;;27.93;18.50;;;;;;;1.19;88.53;100609.55;1718541;83;21318;-77
2022/02/24 03:11:50;;;;;;;48.05;34.45;;;;;;;1.20;88.69;100607.23;1719295;82;21927;-85
2022/02/24 03:14:57;;;;;;;29.85;19.92;;;;;;;1.19;88.67;100610.04;1719144;83;21294;-81
2022/02/24 03:18:02;;;;;;;29.95;19.67;;;;;;;1.18;88.78;100606.48;1718545;82;21163;-86
2022/02/24 03:21:08;;;;;;;27.10;17.82;;;;;;;1.13;88.88;100607.30;1719244;82;21274;-76
2022/02/24 03:24:14;;;;;;;27.80;18.32;;;;;;;1.11;88.99;100615.11;1719807;83;21284;-76
2022/02/24 03:27:19;;;;;;;34.92;19.82;;;;;;;1.10;89.08;100614.25;1719136;82;21330;-86
2022/02/24 03:30:24;;;;;;;31.90;19.20;;;;;;;1.11;89.29;100618.66;1719692;83;21199;-84
2022/02/24 03:33:30;;;;;;;42.62;25.45;;;;;;;1.10;89.21;100616.08;1718969;83;21194;-77
2022/02/24 03:36:36;;;;;;;27.77;18.17;;;;;;;1.07;89.24;100609.55;1719637;82;21293;-77
2022/02/24 03:39:42;;;;;;;30.15;18.20;;;;;;;1.06;89.40;100615.42;1719654;83;21294;-85
2022/02/24 03:42:52;;;;;;;28.40;16.93;;;;;;;1.07;89.47;100612.25;1718604;82;21317;-85
2022/02/24 03:45:55;;;;;;;25.82;16.17;;;;;;;1.08;89.45;100618.00;1719808;83;21259;-79
2022/02/24 03:49:01;;;;;;;27.32;18.32;;;;;;;1.08;89.39;100614.82;1719125;83;21823;-80
2022/02/24 03:52:07;;;;;;;31.62;19.45;;;;;;;1.08;89.24;100610.78;1710344;82;21793;-85
2022/02/24 03:55:13;;;;;;;25.15;17.02;;;;;;;1.08;89.11;100612.12;1710922;84;21867;-85
2022/02/24 03:58:18;;;;;;;24.67;16.95;;;;;;;1.07;89.04;100621.67;1711113;82;21199;-85
2022/02/24 04:01:23;;;;;;;26.12;17.35;;;;;;;1.05;89.05;100619.59;1711055;82;21330;-76
2022/02/24 04:04:29;;;;;;;26.85;17.95;;;;;;;1.05;88.97;100625.83;1710027;84;21269;-76
2022/02/24 04:07:35;;;;;;;25.23;18.00;;;;;;;1.04;88.96;100632.20;1710254;82;21298;-77
2022/02/24 04:10:40;;;;;;;26.55;18.10;;;;;;;1.02;88.75;100630.08;1711048;84;21764;-85
2022/02/24 04:13:46;;;;;;;25.45;16.60;;;;;;;0.97;88.62;100637.13;1710982;84;21804;-86
2022/02/24 04:16:51;;;;;;;24.95;17.30;;;;;;;0.94;88.68;100636.48;1710782;82;21317;-77
2022/02/24 04:19:57;;;;;;;25.60;17.87;;;;;;;0.91;88.56;100638.92;1709754;84;21286;-77
2022/02/24 04:23:03;;;;;;;27.32;17.27;;;;;;;0.88;88.62;100646.34;1709674;82;21289;-77
2022/02/24 04:26:07;;;;;;;24.40;16.00;;;;;;;0.85;88.73;100651.92;1710953;82;21262;-76
2022/02/24 04:29:12;;;;;;;24.87;16.57;;;;;;;0.82;88.72;100654.36;1661411;86;21365;-77
2022/02/24 04:32:18;;;;;;;24.07;16.75;;;;;;;0.84;88.66;100659.64;1665871;85;21375;-86
2022/02/24 04:35:23;;;;;;;32.58;19.30;;;;;;;0.85;88.70;100665.39;1663115;85;21915;-86
2022/02/24 04:38:30;;;;;;;25.82;17.60;;;;;;;0.88;88.74;100673.27;1688704;85;21302;-85
2022/02/24 04:41:35;;;;;;;29.92;17.82;;;;;;;0.87;88.61;100679.14;1688810;83;21359;-76
2022/02/24 04:44:42;;;;;;;26.75;15.98;;;;;;;0.88;88.51;100682.70;1689046;85;21818;-85
2022/02/24 04:47:49;;;;;;;28.42;16.55;;;;;;;0.87;88.36;100683.19;1687679;83;21217;-77
2022/02/24 04:50:55;;;;;;;29.40;18.17;;;;;;;0.85;88.37;100697.25;1688862;85;21295;-76
2022/02/24 04:54:00;;;;;;;30.02;16.35;;;;;;;0.84;88.44;100704.07;1709488;83;21190;-85
2022/02/24 04:57:05;;;;;;;27.50;18.02;;;;;;;0.88;88.37;100700.20;1674871;84;21774;-85
2022/02/24 05:00:12;;;;;;;24.07;15.53;;;;;;;0.86;88.15;100697.63;1704592;83;21255;-76
2022/02/24 05:03:18;;;;;;;27.98;16.93;;;;;;;0.88;88.02;100705.59;1673772;84;21765;-76
2022/02/24 05:06:24;;;;;;;25.88;16.30;;;;;;;0.85;87.72;100710.72;1672040;85;21293;-86
2022/02/24 05:09:29;;;;;;;24.90;15.85;;;;;;;0.80;87.73;100710.63;1680111;84;21828;-76
2022/02/24 05:12:34;;;;;;;27.25;16.75;;;;;;;0.76;87.73;100714.89;1679032;84;21294;-85
2022/02/24 05:15:41;;;;;;;27.82;16.52;;;;;;;0.74;87.67;100711.91;1675972;84;21424;-77
2022/02/24 05:18:50;;;;;;;28.60;18.20;;;;;;;0.70;87.74;100714.43;1692532;84;21292;-77
2022/02/24 05:21:55;;;;;;;34.00;18.00;;;;;;;0.67;88.05;100712.83;1716988;83;21392;-86
2022/02/24 05:25:01;;;;;;;29.20;18.30;;;;;;;0.66;88.36;100717.84;1715058;83;21181;-86
2022/02/24 05:28:06;;;;;;;29.48;18.30;;;;;;;0.68;88.51;100721.27;1717807;83;21327;-78
2022/02/24 05:31:11;;;;;;;28.47;19.12;;;;;;;0.73;88.67;100725.86;1699351;82;21284;-86
2022/02/24 05:34:16;;;;;;;25.77;18.00;;;;;;;0.76;88.63;100728.36;1725923;82;21908;-77
2022/02/24 05:37:26;;;;;;;27.25;17.95;;;;;;;0.81;88.61;100730.75;1694955;83;21368;-85
2022/02/24 05:40:31;;;;;;;26.52;17.07;;;;;;;0.85;88.62;100728.68;1694979;83;21231;-83
2022/02/24 05:43:37;;;;;;;27.65;16.90;;;;;;;0.95;88.59;100736.55;1671342;85;21700;-78
2022/02/24 05:46:44;;;;;;;27.75;18.17;;;;;;;1.03;88.47;100738.20;1680289;84;21181;-77
2022/02/24 05:49:49;;;;;;;27.98;18.12;;;;;;;1.09;88.33;100748.59;1682304;84;21176;-77
2022/02/24 05:53:02;;;;;;;28.35;18.00;;;;;;;1.14;88.28;100755.01;1693227;83;22044;-76
2022/02/24 05:56:02;;;;;;;28.50;19.27;;;;;;;1.17;88.19;100753.43;1718984;82;21252;-84
2022/02/24 05:59:07;;;;;;;33.98;21.68;;;;;;;1.26;88.24;100759.05;1693777;84;21303;-77
2022/02/24 06:02:13;;;;;;;28.65;17.67;;;;;;;1.38;88.08;100761.88;1703517;82;21343;-76
2022/02/24 06:05:20;;;;;;;35.03;21.23;;;;;;;1.47;88.00;100761.24;1711820;82;21350;-76
2022/02/24 06:08:25;;;;;;;36.63;21.75;;;;;;;1.51;87.98;100762.76;1668357;85;21280;-76
2022/02/24 06:11:31;;;;;;;35.03;20.88;;;;;;;1.56;88.17;100767.34;1707112;82;21327;-77
2022/02/24 06:14:38;;;;;;;42.27;27.75;;;;;;;1.60;88.62;100772.90;1711744;82;21761;-86
2022/02/24 06:17:44;;;;;;;35.38;22.62;;;;;;;1.69;88.89;100770.88;1710972;82;21196;-85
2022/02/24 06:20:51;;;;;;;38.20;22.22;;;;;;;1.75;89.12;100767.77;1688432;83;21387;-85
2022/02/24 06:23:57;;;;;;;36.93;22.77;;;;;;;1.82;89.28;100771.37;1711079;82;21305;-76
2022/02/24 06:27:02;;;;;;;33.05;21.45;;;;;;;1.86;89.27;100776.92;1711859;82;21288;-76
2022/02/24 06:30:08;;;;;;;32.78;21.30;;;;;;;1.90;89.42;100777.09;1711302;82;21272;-77
2022/02/24 06:33:14;;;;;;;33.63;19.73;;;;;;;1.96;89.24;100785.59;1706582;82;21859;-85
2022/02/24 06:36:20;;;;;;;30.60;19.17;;;;;;;2.06;89.22;100783.09;1711996;82;21323;-76
2022/02/24 06:39:26;;;;;;;30.55;18.48;;;;;;;2.15;89.12;100781.08;1702591;82;21317;-76
2022/02/24 06:42:34;;;;;;;28.38;16.90;;;;;;;2.25;88.88;100789.37;1714144;82;21193;-76
2022/02/24 06:45:41;;;;;;;29.40;17.05;;;;;;;2.36;88.50;100789.48;1714899;82;21726;-76
2022/02/24 06:48:48;;;;;;;28.70;17.07;;;;;;;2.51;88.16;100798.28;1709023;82;21180;-86
2022/02/24 06:51:55;;;;;;;21.68;16.05;;;;;;;2.65;87.82;100802.18;1706509;82;21194;-85
2022/02/24 06:55:01;;;;;;;23.55;15.32;;;;;;;2.80;87.29;100802.87;1671434;84;21208;-85
2022/02/24 06:58:06;;;;;;;45.88;25.15;;;;;;;2.95;87.13;100804.42;1700156;82;21319;-76
2022/02/24 07:01:12;;;;;;;31.10;17.92;;;;;;;3.11;86.53;100799.23;1702487;82;21288;-85
2022/02/24 07:04:17;;;;;;;25.02;15.78;;;;;;;3.23;85.72;100800.48;1703964;82;21307;-76
2022/02/24 07:07:22;;;;;;;26.17;15.78;;;;;;;3.39;85.12;100810.11;1703669;82;21858;-76
2022/02/24 07:10:28;;;;;;;25.80;15.32;;;;;;;3.47;83.17;100812.61;1705767;82;21318;-85
2022/02/24 07:13:33;;;;;;;24.77;15.10;;;;;;;3.56;82.80;100808.33;1703556;82;21678;-77
2022/02/24 07:16:44;;;;;;;24.92;15.30;;;;;;;3.66;81.83;100814.74;1701046;83;21320;-86
2022/02/24 07:19:53;;;;;;;21.87;13.68;;;;;;;3.73;80.68;100820.06;1704948;82;22195;-78
2022/02/24 07:22:58;;;;;;;24.00;14.10;;;;;;;3.80;79.52;100816.37;1707530;82;21189;-77
2022/02/24 07:25:57;;;;;;;19.20;13.00;;;;;;;3.90;79.30;100820.56;1704947;82;21181;-86
2022/02/24 07:29:03;;;;;;;28.60;13.50;;;;;;;4.01;79.04;100820.59;1705364;82;21694;-86
2022/02/24 07:32:08;;;;;;;19.87;13.20;;;;;;;4.10;78.06;100826.63;1706424;82;21597;-87
2022/02/24 07:35:13;;;;;;;20.68;12.93;;;;;;;4.18;77.08;100825.50;1705269;82;21355;-78
2022/02/24 07:38:19;;;;;;;17.27;12.35;;;;;;;4.27;76.86;100823.41;1705025;82;21782;-87
2022/02/24 07:41:25;;;;;;;20.65;12.43;;;;;;;4.35;75.83;100826.38;1704528;82;21458;-78
2022/02/24 07:44:32;;;;;;;27.00;14.93;;;;;;;4.45;75.19;100831.05;1706552;82;21837;-83
2022/02/24 07:47:37;;;;;;;18.80;12.78;;;;;;;4.54;74.64;100824.88;1705980;82;21177;-85
2022/02/24 07:50:46;;;;;;;25.37;15.60;;;;;;;4.61;75.13;100825.62;1705181;82;21675;-85
2022/02/24 07:53:51;;;;;;;32.10;12.43;;;;;;;4.73;73.17;100825.09;1706657;82;21367;-86
2022/02/24 07:56:56;;;;;;;18.15;11.73;;;;;;;4.84;73.25;100817.42;1709975;82;21300;-85
2022/02/24 08:00:02;;;;;;;26.68;11.68;;;;;;;4.91;72.18;100819.16;1711759;82;21268;-84
2022/02/24 08:03:08;;;;;;;16.50;10.60;;;;;;;4.95;70.91;100821.98;1706697;83;21380;-77
2022/02/24 08:06:14;;;;;;;16.40;9.85;;;;;;;4.94;69.58;100817.05;1715609;82;21287;-87
2022/02/24 08:09:20;;;;;;;19.12;10.30;;;;;;;4.93;69.96;100817.16;1719024;82;21298;-78
2022/02/24 08:12:48;;;;;;;13.83;8.65;;;;;;;4.98;70.04;100816.28;1683434;84;21180;-78
2022/02/24 08:15:33;;;;;;;17.57;9.30;;;;;;;4.98;69.35;100834.77;1647781;86;21304;-87
2022/02/24 08:18:38;;;;;;;10.70;7.67;;;;;;;5.02;69.34;100816.39;1683532;83;21634;-86
2022/02/24 08:21:43;;;;;;;10.65;7.40;;;;;;;5.08;66.97;100828.08;1690646;83;21361;-86
2022/02/24 08:24:50;;;;;;;14.98;9.15;;;;;;;5.11;66.31;100828.69;1717741;82;21296;-86
2022/02/24 08:27:55;;;;;;;15.70;10.15;;;;;;;5.15;66.00;100832.01;1719665;82;21327;-77
2022/02/24 08:31:00;;;;;;;13.70;9.28;;;;;;;5.16;66.29;100822.88;1721636;82;21219;-77
2022/02/24 08:34:06;;;;;;;14.33;9.93;;;;;;;5.19;67.43;100823.98;1726940;82;21291;-86
2022/02/24 08:37:12;;;;;;;27.48;15.72;;;;;;;5.24;67.14;100830.37;1721960;82;21829;-85
2022/02/24 08:40:19;;;;;;;20.45;10.43;;;;;;;5.29;66.85;100824.92;1717557;82;21801;-77
2022/02/24 08:43:25;;;;;;;13.05;7.80;;;;;;;5.34;67.16;100828.61;1712526;82;21351;-76
2022/02/24 08:46:30;;;;;;;13.22;8.10;;;;;;;5.42;66.09;100829.33;1715286;82;22161;-85
2022/02/24 08:49:35;;;;;;;14.87;8.80;;;;;;;5.49;66.01;100830.00;1709880;83;21778;-86
2022/02/24 08:52:40;;;;;;;11.38;7.03;;;;;;;5.58;65.96;100832.43;1713813;82;21825;-84
2022/02/24 08:55:47;;;;;;;12.75;6.70;;;;;;;5.69;63.03;100832.86;1716416;82;21180;-84
2022/02/24 08:58:45;;;;;;;10.43;7.30;;;;;;;5.80;62.98;100843.67;1711446;82;21271;-85
2022/02/24 09:05:04;;;;;;;12.07;7.08;;;;;;;5.88;60.29;100847.45;1696854;83;21604;-77
2022/02/24 09:08:09;;;;;;;12.65;6.08;;;;;;;5.93;61.51;100842.12;1686718;83;21308;-77
2022/02/24 09:11:17;;;;;;;11.90;7.08;;;;;;;6.01;57.41;100838.25;1683134;84;21652;-86
2022/02/24 09:14:22;;;;;;;16.55;7.47;;;;;;;6.10;57.90;100836.09;1687784;84;21642;-85
2022/02/24 09:17:28;;;;;;;16.70;8.48;;;;;;;6.12;58.02;100834.11;1681118;83;21298;-77
2022/02/24 09:20:34;;;;;;;13.05;6.70;;;;;;;6.10;56.62;100832.02;1712246;82;21600;-77
2022/02/24 09:23:40;;;;;;;13.98;7.50;;;;;;;6.08;55.67;100851.67;1713308;82;21947;-86
2022/02/24 09:26:45;;;;;;;13.55;6.97;;;;;;;6.08;56.17;100839.45;1718098;82;21275;-77
2022/02/24 09:29:51;;;;;;;17.82;10.20;;;;;;;6.10;57.18;100844.23;1713905;82;21432;-86
2022/02/24 09:32:57;;;;;;;17.00;6.42;;;;;;;6.15;53.90;100841.97;1714859;82;21820;-77
2022/02/24 09:36:01;;;;;;;20.15;12.05;;;;;;;6.21;52.85;100841.45;1716246;82;21285;-86
2022/02/24 09:39:07;;;;;;;20.97;9.00;;;;;;;6.29;54.10;100837.53;1714925;82;21445;-77
2022/02/24 09:42:13;;;;;;;10.55;6.83;;;;;;;6.35;52.88;100842.92;1720095;82;21212;-86
2022/02/24 09:45:20;;;;;;;10.72;7.72;;;;;;;6.37;52.79;100848.59;1721881;82;21271;-85
2022/02/24 09:48:33;;;;;;;14.85;8.18;;;;;;;6.37;53.26;100837.73;1693161;84;21897;-77
2022/02/24 09:51:43;;;;;;;17.17;8.20;;;;;;;6.40;55.40;100846.97;1683500;82;21966;-76
2022/02/24 09:54:46;;;;;;;13.58;7.35;;;;;;;6.49;52.84;100838.97;1712582;82;21537;-76
2022/02/24 09:57:53;;;;;;;18.30;8.20;;;;;;;6.57;51.32;100840.52;1719238;83;21271;-85
2022/02/24 10:00:59;;;;;;;11.63;7.25;;;;;;;6.62;51.57;100832.80;1715941;82;21318;-83
2022/02/24 10:04:06;;;;;;;12.37;7.35;;;;;;;6.70;51.72;100831.62;1715863;82;21319;-86
2022/02/24 10:07:11;;;;;;;14.87;7.30;;;;;;;6.74;50.91;100827.63;1715610;82;21816;-85
2022/02/24 10:10:39;;;;;;;10.60;6.35;;;;;;;6.79;50.98;100840.30;1674288;83;21334;-77
2022/02/24 10:13:44;;;;;;;16.57;5.92;;;;;;;6.86;51.71;100832.44;1715750;82;21292;-77
2022/02/24 10:17:07;;;;;;;10.55;6.08;;;;;;;6.93;49.71;100820.52;1726114;82;21234;-86
2022/02/24 10:20:16;;;;;;;12.25;5.97;;;;;;;7.00;48.92;100821.66;1698753;83;22304;-86
2022/02/24 10:23:23;;;;;;;12.28;6.37;;;;;;;7.10;48.45;100826.61;1720707;82;21766;-76
2022/02/24 10:26:29;;;;;;;11.93;6.87;;;;;;;7.13;48.82;100827.70;1704686;83;21330;-85
2022/02/24 10:29:34;;;;;;;10.43;6.53;;;;;;;7.15;48.76;100805.27;1710674;82;21178;-85
2022/02/24 10:32:47;;;;;;;10.15;6.20;;;;;;;7.17;48.77;100813.67;1714934;82;21617;-77
2022/02/24 10:35:52;;;;;;;11.00;6.42;;;;;;;7.13;49.75;100805.94;1717634;82;21285;-76
2022/02/24 10:39:22;;;;;;;12.68;7.03;;;;;;;7.16;50.75;100818.76;1714367;82;21164;-85
2022/02/24 10:42:33;;;;;;;17.60;7.10;;;;;;;7.18;49.15;100804.50;1678301;84;21184;-76
2022/02/24 10:45:38;;;;;;;14.33;6.72;;;;;;;7.12;50.30;100821.91;1711392;82;21791;-86
2022/02/24 10:49:00;;;;;;;11.73;6.67;;;;;;;7.11;48.12;100822.91;1713666;82;21327;-86
2022/02/24 10:52:27;;;;;;;11.18;6.12;;;;;;;7.16;47.69;100814.67;1715627;82;21856;-85
2022/02/24 10:55:32;;;;;;;15.10;6.83;;;;;;;7.18;46.04;100816.74;1705372;82;21216;-86
2022/02/24 10:58:40;;;;;;;12.05;7.75;;;;;;;7.13;47.82;100800.49;1716849;82;21657;-86
2022/02/24 11:01:48;;;;;;;13.83;7.30;;;;;;;7.16;48.89;100803.80;1720758;83;21334;-85
2022/02/24 11:04:53;;;;;;;13.83;7.03;;;;;;;7.21;46.88;100800.65;1720136;82;21331;-85
2022/02/24 11:07:59;;;;;;;13.40;7.28;;;;;;;7.16;46.15;100785.25;1699067;84;21824;-77
2022/02/24 11:11:05;;;;;;;12.03;6.67;;;;;;;7.03;46.62;100781.45;1651463;86;21200;-78
2022/02/24 11:14:13;;;;;;;10.93;7.35;;;;;;;6.91;48.15;100791.58;1697165;84;21204;-77
2022/02/24 11:17:19;;;;;;;15.18;10.50;;;;;;;6.80;47.89;100789.00;1680517;85;21343;-85
2022/02/24 11:20:24;;;;;;;12.05;7.35;;;;;;;6.75;48.72;100795.36;1698818;84;21184;-86
2022/02/24 11:23:33;;;;;;;18.25;8.60;;;;;;;6.81;49.22;100794.79;1675690;85;21322;-77
2022/02/24 11:27:00;;;;;;;16.35;8.25;;;;;;;6.95;48.89;100800.83;1692394;85;21633;-86
2022/02/24 11:30:17;;;;;;;11.93;7.20;;;;;;;7.05;49.26;100789.45;1706782;84;21177;-85
2022/02/24 11:33:23;;;;;;;9.00;4.53;;;;;;;7.14;47.76;100794.05;1702077;84;21727;-85
2022/02/24 11:36:30;;;;;;;18.30;6.70;;;;;;;7.13;44.25;100795.91;1678209;85;21311;-86
2022/02/24 11:39:36;;;;;;;12.88;7.87;;;;;;;7.11;45.52;100807.95;1634737;88;21311;-86
2022/02/24 11:42:43;;;;;;;10.35;5.53;;;;;;;7.07;46.21;100793.77;1699841;84;21188;-87
2022/02/24 11:46:02;;;;;;;9.53;4.85;;;;;;;7.07;45.72;100792.91;1692940;83;21853;-84
2022/02/24 11:49:06;;;;;;;7.75;4.85;;;;;;;7.07;44.67;100796.99;1693263;84;21182;-85
2022/02/24 11:52:38;;;;;;;6.30;4.90;;;;;;;7.06;44.26;100793.41;1697047;84;21200;-85
2022/02/24 11:55:55;;;;;;;7.67;3.95;;;;;;;7.09;44.38;100806.71;1697558;84;21210;-77
2022/02/24 11:59:05;;;;;;;6.85;4.92;;;;;;;7.09;44.54;100801.77;1695395;84;21173;-85
2022/02/24 12:02:10;;;;;;;10.08;4.17;;;;;;;7.12;44.74;100807.80;1703589;84;21330;-77
2022/02/24 12:05:33;;;;;;;8.28;4.53;;;;;;;7.09;41.60;100808.07;1706919;84;21339;-77
2022/02/24 12:08:38;;;;;;;11.65;5.08;;;;;;;7.02;42.15;100812.87;1708052;84;21303;-84
2022/02/24 12:11:47;;;;;;;8.53;4.67;;;;;;;6.99;43.13;100818.59;1706131;82;21167;-76
2022/02/24 12:14:53;;;;;;;8.85;5.20;;;;;;;6.99;42.93;100819.44;1686400;83;21204;-76
2022/02/24 12:17:58;;;;;;;9.43;5.55;;;;;;;6.97;43.28;100809.22;1683984;83;21821;-86
2022/02/24 12:21:35;;;;;;;9.43;5.83;;;;;;;6.96;44.70;100811.55;1685871;83;22129;-85
2022/02/24 12:24:40;;;;;;;11.45;5.33;;;;;;;6.94;45.56;100809.99;1686057;85;21714;-78
2022/02/24 12:27:42;;;;;;;7.78;5.33;;;;;;;6.90;45.19;100808.91;1684250;83;21290;-76
2022/02/24 12:30:38;;;;;;;6.67;5.08;;;;;;;6.91;43.80;100805.17;1702314;82;21869;-76
2022/02/24 12:33:43;;;;;;;9.00;5.42;;;;;;;6.91;44.10;100799.73;1672180;85;21657;-76
2022/02/24 12:36:50;;;;;;;20.68;10.93;;;;;;;6.93;45.01;100813.72;1697260;84;21212;-85
2022/02/24 12:39:55;;;;;;;17.98;10.98;;;;;;;6.92;44.50;100800.63;1674144;85;21304;-85
2022/02/24 12:43:02;;;;;;;8.15;5.72;;;;;;;6.91;44.95;100805.17;1705841;83;21347;-77
2022/02/24 12:46:08;;;;;;;11.73;6.08;;;;;;;6.92;44.54;100800.63;1669131;85;21304;-77
2022/02/24 12:49:13;;;;;;;15.25;8.30;;;;;;;6.94;45.87;100806.77;1708021;84;21375;-86
2022/02/24 12:52:24;;;;;;;19.20;8.48;;;;;;;6.92;46.04;100803.34;1658945;86;21827;-86
2022/02/24 12:55:29;;;;;;;13.18;7.67;;;;;;;6.94;45.76;100797.76;1659452;86;21327;-77
2022/02/24 12:58:34;;;;;;;14.95;7.62;;;;;;;6.94;46.14;100796.39;1701579;83;21844;-77
2022/02/24 13:01:40;;;;;;;13.68;7.75;;;;;;;6.95;45.48;100795.39;1659341;86;21406;-84
2022/02/24 13:04:46;;;;;;;13.00;6.33;;;;;;;6.93;45.80;100793.33;1673079;85;21368;-77
2022/02/24 13:11:16;;;;;;;14.40;7.03;;;;;;;6.79;46.70;100784.56;1702226;84;22775;-76
2022/02/24 13:14:26;;;;;;;9.03;5.70;;;;;;;6.74;47.59;100773.76;1684946;85;21303;-76
2022/02/24 13:17:28;;;;;;;13.15;6.87;;;;;;;6.77;47.75;100766.66;1699894;84;21218;-76
2022/02/24 13:20:35;;;;;;;13.53;6.28;;;;;;;6.76;48.29;100769.88;1675944;83;21182;-77
2022/02/24 13:23:40;;;;;;;15.78;6.17;;;;;;;6.74;47.48;100766.46;1688909;85;21302;-84
2022/02/24 13:26:46;;;;;;;10.30;5.50;;;;;;;6.73;46.90;100757.06;1704785;84;21237;-86
2022/02/24 13:29:54;;;;;;;13.83;6.67;;;;;;;6.73;47.51;100747.08;1706627;83;21263;-85
2022/02/24 13:32:59;;;;;;;11.68;5.90;;;;;;;6.73;46.76;100748.44;1695262;84;21274;-76
2022/02/24 13:36:03;;;;;;;8.10;5.30;;;;;;;6.73;46.70;100738.03;1706168;84;21310;-83
2022/02/24 13:39:10;;;;;;;10.35;5.95;;;;;;;6.75;47.15;100745.56;1706064;84;21290;-76
2022/02/24 13:42:15;;;;;;;13.35;5.15;;;;;;;6.71;47.57;100750.41;1705912;84;21306;-86
2022/02/24 13:45:22;;;;;;;20.40;6.33;;;;;;;6.67;48.87;100750.33;1686681;84;21287;-76
2022/02/24 13:48:28;;;;;;;8.55;5.83;;;;;;;6.68;48.43;100752.55;1707101;84;21216;-85
2022/02/24 13:51:33;;;;;;;10.63;4.58;;;;;;;6.64;47.67;100753.35;1706804;84;21350;-85
2022/02/24 13:54:38;;;;;;;19.37;9.75;;;;;;;6.60;47.55;100760.06;1706990;84;21287;-85
2022/02/24 13:58:00;;;;;;;9.98;5.47;;;;;;;6.59;48.37;100764.64;1706170;84;21338;-85
2022/02/24 14:01:12;;;;;;;17.12;5.75;;;;;;;6.60;48.60;100775.87;1705639;84;21284;-85
2022/02/24 14:04:18;;;;;;;8.20;5.12;;;;;;;6.59;49.07;100766.51;1691878;85;21205;-85
2022/02/24 14:07:39;;;;;;;11.60;6.22;;;;;;;6.55;49.34;100768.64;1671113;85;21252;-76
2022/02/24 14:10:48;;;;;;;10.82;5.62;;;;;;;6.51;49.84;100761.75;1722119;83;21223;-85
2022/02/24 14:13:54;;;;;;;9.35;5.30;;;;;;;6.47;50.60;100758.09;1721254;83;21180;-85
2022/02/24 14:16:59;;;;;;;9.05;5.60;;;;;;;6.41;49.75;100760.88;1721719;83;21306;-78
2022/02/24 14:20:07;;;;;;;9.10;5.62;;;;;;;6.33;50.29;100760.70;1721501;83;21302;-86
2022/02/24 14:23:13;;;;;;;10.15;5.90;;;;;;;6.27;50.38;100757.19;1720445;83;21625;-78
2022/02/24 14:26:19;;;;;;;8.48;5.78;;;;;;;6.20;51.06;100758.72;1721890;83;21173;-77
2022/02/24 14:29:25;;;;;;;9.03;5.72;;;;;;;6.12;51.63;100761.63;1722434;83;21412;-77
2022/02/24 14:32:31;;;;;;;10.28;5.80;;;;;;;6.08;52.00;100756.61;1722306;83;21338;-86